Phoenix, Arizona
Current Conditions -  °F | °C
As of 3:51 AM on Thursday 18 Dec 2014 (Local Time) from KPHX Reporting Station
Overcast Overcast  
Wind Chill: 53°   Ceiling: 8000
Heat Index: 53°   Visibility: 10mi
Dew Point: 50°   Wind: 5mph
Humidity: 89%   Direction: 100°E
Pressure: 30.08"   Gusts: NA
Location:  33.45°N, 112.08°W
Report Text: KPHX 181051Z 10004KT 10SM SCT030 BKN080 OVC120 12/10 A3008 RMK AO2 SLP181 T01170100
Loading
Personal Weather Stations






























Interactive Weather Map New forecast layout! Learn more

10-Day Weather Forecast

Advertisements
Track Severe Weather on mobile